sensor_id;sensor_type;location;lat;lon;timestamp;P1;durP1;ratioP1;P2;durP2;ratioP2
31450;SDS011;18070;52.474;13.304;2024-03-22T00:01:12;21.63;;;15.85;;
31450;SDS011;18070;52.474;13.304;2024-03-22T00:03:37;22.92;;;15.07;;
31450;SDS011;18070;52.474;13.304;2024-03-22T00:06:03;22.58;;;15.60;;
31450;SDS011;18070;52.474;13.304;2024-03-22T00:08:28;21.85;;;15.75;;
31450;SDS011;18070;52.474;13.304;2024-03-22T00:10:54;22.38;;;15.07;;
31450;SDS011;18070;52.474;13.304;2024-03-22T00:13:19;21.27;;;15.50;;
31450;SDS011;18070;52.474;13.304;2024-03-22T00:15:45;22.92;;;16.00;;
31450;SDS011;18070;52.474;13.304;2024-03-22T00:18:11;23.75;;;15.98;;
31450;SDS011;18070;52.474;13.304;2024-03-22T00:20:36;24.02;;;16.45;;
31450;SDS011;18070;52.474;13.304;2024-03-22T00:23:02;23.30;;;15.77;;
31450;SDS011;18070;52.474;13.304;2024-03-22T00:25:27;24.23;;;15.60;;
31450;SDS011;18070;52.474;13.304;2024-03-22T00:27:54;24.77;;;16.33;;
31450;SDS011;18070;52.474;13.304;2024-03-22T00:30:20;23.25;;;15.98;;
31450;SDS011;18070;52.474;13.304;2024-03-22T00:32:45;22.35;;;15.10;;
31450;SDS011;18070;52.474;13.304;2024-03-22T00:35:12;23.60;;;15.48;;
31450;SDS011;18070;52.474;13.304;2024-03-22T00:37:37;25.73;;;16.83;;
31450;SDS011;18070;52.474;13.304;2024-03-22T00:40:03;26.10;;;16.38;;
31450;SDS011;18070;52.474;13.304;2024-03-22T00:42:29;26.10;;;16.42;;
31450;SDS011;18070;52.474;13.304;2024-03-22T00:44:55;25.15;;;16.75;;
31450;SDS011;18070;52.474;13.304;2024-03-22T00:47:22;24.35;;;17.13;;
31450;SDS011;18070;52.474;13.304;2024-03-22T00:49:47;27.90;;;17.90;;
31450;SDS011;18070;52.474;13.304;2024-03-22T00:52:13;26.58;;;17.02;;
31450;SDS011;18070;52.474;13.304;2024-03-22T00:54:38;26.10;;;17.55;;
31450;SDS011;18070;52.474;13.304;2024-03-22T00:57:05;27.45;;;17.75;;
31450;SDS011;18070;52.474;13.304;2024-03-22T00:59:31;28.17;;;18.70;;
31450;SDS011;18070;52.474;13.304;2024-03-22T01:01:56;30.40;;;18.00;;
31450;SDS011;18070;52.474;13.304;2024-03-22T01:04:22;29.05;;;17.20;;
31450;SDS011;18070;52.474;13.304;2024-03-22T01:06:47;28.77;;;18.17;;
31450;SDS011;18070;52.474;13.304;2024-03-22T01:09:13;30.15;;;18.95;;
31450;SDS011;18070;52.474;13.304;2024-03-22T01:11:39;31.35;;;18.70;;
31450;SDS011;18070;52.474;13.304;2024-03-22T01:14:05;29.10;;;18.15;;
31450;SDS011;18070;52.474;13.304;2024-03-22T01:16:30;27.75;;;17.80;;
31450;SDS011;18070;52.474;13.304;2024-03-22T01:18:56;27.92;;;17.85;;
31450;SDS011;18070;52.474;13.304;2024-03-22T01:21:21;32.75;;;18.17;;
31450;SDS011;18070;52.474;13.304;2024-03-22T01:23:50;29.88;;;18.90;;
31450;SDS011;18070;52.474;13.304;2024-03-22T01:26:17;30.83;;;18.80;;
31450;SDS011;18070;52.474;13.304;2024-03-22T01:28:42;31.50;;;18.88;;
31450;SDS011;18070;52.474;13.304;2024-03-22T01:31:08;32.95;;;18.92;;
31450;SDS011;18070;52.474;13.304;2024-03-22T01:33:33;29.65;;;18.75;;
31450;SDS011;18070;52.474;13.304;2024-03-22T01:35:59;28.92;;;18.77;;
31450;SDS011;18070;52.474;13.304;2024-03-22T01:38:24;32.63;;;19.13;;
31450;SDS011;18070;52.474;13.304;2024-03-22T01:40:50;34.15;;;20.67;;
31450;SDS011;18070;52.474;13.304;2024-03-22T01:43:15;33.22;;;19.55;;
31450;SDS011;18070;52.474;13.304;2024-03-22T01:45:41;35.08;;;19.85;;
31450;SDS011;18070;52.474;13.304;2024-03-22T01:48:07;32.90;;;19.05;;
31450;SDS011;18070;52.474;13.304;2024-03-22T01:50:32;31.17;;;18.77;;
31450;SDS011;18070;52.474;13.304;2024-03-22T01:52:58;34.35;;;19.40;;
31450;SDS011;18070;52.474;13.304;2024-03-22T01:55:24;32.92;;;19.67;;
31450;SDS011;18070;52.474;13.304;2024-03-22T01:57:50;31.63;;;18.90;;
31450;SDS011;18070;52.474;13.304;2024-03-22T02:00:18;32.88;;;19.48;;
31450;SDS011;18070;52.474;13.304;2024-03-22T02:02:44;32.28;;;19.85;;
31450;SDS011;18070;52.474;13.304;2024-03-22T02:05:15;33.20;;;18.38;;
31450;SDS011;18070;52.474;13.304;2024-03-22T02:07:44;35.95;;;19.88;;
31450;SDS011;18070;52.474;13.304;2024-03-22T02:10:10;38.58;;;19.52;;
31450;SDS011;18070;52.474;13.304;2024-03-22T02:12:37;33.03;;;19.33;;
31450;SDS011;18070;52.474;13.304;2024-03-22T02:15:07;37.65;;;18.45;;
31450;SDS011;18070;52.474;13.304;2024-03-22T02:17:33;33.55;;;19.15;;
31450;SDS011;18070;52.474;13.304;2024-03-22T02:19:59;30.00;;;18.30;;
31450;SDS011;18070;52.474;13.304;2024-03-22T02:22:26;32.42;;;18.73;;
31450;SDS011;18070;52.474;13.304;2024-03-22T02:24:51;33.15;;;19.27;;
31450;SDS011;18070;52.474;13.304;2024-03-22T02:27:17;28.88;;;17.70;;
31450;SDS011;18070;52.474;13.304;2024-03-22T02:29:43;32.33;;;19.60;;
31450;SDS011;18070;52.474;13.304;2024-03-22T02:32:09;35.75;;;18.88;;
31450;SDS011;18070;52.474;13.304;2024-03-22T02:34:34;33.75;;;20.02;;
31450;SDS011;18070;52.474;13.304;2024-03-22T02:37:00;31.42;;;18.67;;
31450;SDS011;18070;52.474;13.304;2024-03-22T02:39:25;32.38;;;19.42;;
31450;SDS011;18070;52.474;13.304;2024-03-22T02:41:51;32.85;;;19.17;;
31450;SDS011;18070;52.474;13.304;2024-03-22T02:44:16;32.55;;;19.27;;
31450;SDS011;18070;52.474;13.304;2024-03-22T02:46:42;31.50;;;17.83;;
31450;SDS011;18070;52.474;13.304;2024-03-22T02:49:08;34.13;;;19.13;;
31450;SDS011;18070;52.474;13.304;2024-03-22T02:51:33;34.03;;;18.25;;
31450;SDS011;18070;52.474;13.304;2024-03-22T02:53:59;30.20;;;17.80;;
31450;SDS011;18070;52.474;13.304;2024-03-22T02:56:24;31.20;;;18.83;;
31450;SDS011;18070;52.474;13.304;2024-03-22T02:58:50;31.73;;;18.02;;
31450;SDS011;18070;52.474;13.304;2024-03-22T03:01:15;32.97;;;17.85;;
31450;SDS011;18070;52.474;13.304;2024-03-22T03:03:41;32.17;;;18.23;;
31450;SDS011;18070;52.474;13.304;2024-03-22T03:06:06;32.65;;;18.05;;
31450;SDS011;18070;52.474;13.304;2024-03-22T03:08:32;33.45;;;18.83;;
31450;SDS011;18070;52.474;13.304;2024-03-22T03:10:57;30.75;;;17.10;;
31450;SDS011;18070;52.474;13.304;2024-03-22T03:13:23;33.88;;;18.35;;
31450;SDS011;18070;52.474;13.304;2024-03-22T03:15:49;31.83;;;18.40;;
31450;SDS011;18070;52.474;13.304;2024-03-22T03:18:14;31.15;;;16.83;;
31450;SDS011;18070;52.474;13.304;2024-03-22T03:20:40;31.73;;;16.85;;
31450;SDS011;18070;52.474;13.304;2024-03-22T03:23:05;32.33;;;17.35;;
31450;SDS011;18070;52.474;13.304;2024-03-22T03:25:31;37.70;;;19.23;;
31450;SDS011;18070;52.474;13.304;2024-03-22T03:27:56;31.35;;;18.00;;
31450;SDS011;18070;52.474;13.304;2024-03-22T03:30:22;29.95;;;16.92;;
31450;SDS011;18070;52.474;13.304;2024-03-22T03:32:47;29.77;;;17.17;;
31450;SDS011;18070;52.474;13.304;2024-03-22T03:35:13;31.67;;;17.83;;
31450;SDS011;18070;52.474;13.304;2024-03-22T03:37:38;31.58;;;17.33;;
31450;SDS011;18070;52.474;13.304;2024-03-22T03:40:04;31.65;;;17.67;;
31450;SDS011;18070;52.474;13.304;2024-03-22T03:42:30;34.97;;;16.35;;
31450;SDS011;18070;52.474;13.304;2024-03-22T03:44:56;29.77;;;17.73;;
31450;SDS011;18070;52.474;13.304;2024-03-22T03:47:21;30.52;;;17.10;;
31450;SDS011;18070;52.474;13.304;2024-03-22T03:49:47;32.75;;;16.30;;
31450;SDS011;18070;52.474;13.304;2024-03-22T03:52:13;27.80;;;16.65;;
31450;SDS011;18070;52.474;13.304;2024-03-22T03:54:39;29.10;;;16.58;;
31450;SDS011;18070;52.474;13.304;2024-03-22T03:57:04;28.48;;;15.50;;
31450;SDS011;18070;52.474;13.304;2024-03-22T03:59:30;31.23;;;16.48;;
31450;SDS011;18070;52.474;13.304;2024-03-22T04:01:56;32.88;;;17.73;;
31450;SDS011;18070;52.474;13.304;2024-03-22T04:04:21;27.50;;;15.43;;
31450;SDS011;18070;52.474;13.304;2024-03-22T04:06:47;26.48;;;15.32;;
31450;SDS011;18070;52.474;13.304;2024-03-22T04:09:12;30.98;;;16.33;;
31450;SDS011;18070;52.474;13.304;2024-03-22T04:11:38;29.80;;;17.80;;
31450;SDS011;18070;52.474;13.304;2024-03-22T04:14:04;28.67;;;16.02;;
31450;SDS011;18070;52.474;13.304;2024-03-22T04:16:30;33.58;;;18.25;;
31450;SDS011;18070;52.474;13.304;2024-03-22T04:18:56;28.48;;;16.20;;
31450;SDS011;18070;52.474;13.304;2024-03-22T04:21:21;29.05;;;16.25;;
31450;SDS011;18070;52.474;13.304;2024-03-22T04:23:47;30.05;;;17.17;;
31450;SDS011;18070;52.474;13.304;2024-03-22T04:26:12;26.17;;;16.08;;
31450;SDS011;18070;52.474;13.304;2024-03-22T04:28:38;28.70;;;15.45;;
31450;SDS011;18070;52.474;13.304;2024-03-22T04:31:04;28.33;;;16.80;;
31450;SDS011;18070;52.474;13.304;2024-03-22T04:33:31;29.98;;;16.50;;
31450;SDS011;18070;52.474;13.304;2024-03-22T04:35:57;28.88;;;16.88;;
31450;SDS011;18070;52.474;13.304;2024-03-22T04:38:25;28.17;;;15.50;;
31450;SDS011;18070;52.474;13.304;2024-03-22T04:40:51;28.45;;;16.13;;
31450;SDS011;18070;52.474;13.304;2024-03-22T04:43:17;28.85;;;15.65;;
31450;SDS011;18070;52.474;13.304;2024-03-22T04:45:43;27.40;;;15.45;;
31450;SDS011;18070;52.474;13.304;2024-03-22T04:48:09;31.17;;;16.45;;
31450;SDS011;18070;52.474;13.304;2024-03-22T04:50:35;33.13;;;15.88;;
31450;SDS011;18070;52.474;13.304;2024-03-22T04:53:01;26.13;;;15.07;;
31450;SDS011;18070;52.474;13.304;2024-03-22T04:55:27;29.85;;;16.50;;
31450;SDS011;18070;52.474;13.304;2024-03-22T04:57:52;29.67;;;14.82;;
31450;SDS011;18070;52.474;13.304;2024-03-22T05:00:18;28.20;;;16.25;;
31450;SDS011;18070;52.474;13.304;2024-03-22T05:02:44;25.27;;;14.70;;
31450;SDS011;18070;52.474;13.304;2024-03-22T05:05:10;24.00;;;14.57;;
31450;SDS011;18070;52.474;13.304;2024-03-22T05:07:36;30.23;;;14.32;;
31450;SDS011;18070;52.474;13.304;2024-03-22T05:10:02;25.90;;;14.52;;
31450;SDS011;18070;52.474;13.304;2024-03-22T05:12:28;29.38;;;15.82;;
31450;SDS011;18070;52.474;13.304;2024-03-22T05:14:54;24.65;;;14.75;;
31450;SDS011;18070;52.474;13.304;2024-03-22T05:17:20;26.20;;;15.02;;
31450;SDS011;18070;52.474;13.304;2024-03-22T05:19:46;26.15;;;14.85;;
31450;SDS011;18070;52.474;13.304;2024-03-22T05:22:11;28.45;;;16.58;;
31450;SDS011;18070;52.474;13.304;2024-03-22T05:24:37;29.00;;;15.63;;
31450;SDS011;18070;52.474;13.304;2024-03-22T05:27:03;31.80;;;15.45;;
31450;SDS011;18070;52.474;13.304;2024-03-22T05:29:28;28.98;;;16.67;;
31450;SDS011;18070;52.474;13.304;2024-03-22T05:31:54;35.97;;;16.92;;
31450;SDS011;18070;52.474;13.304;2024-03-22T05:34:19;32.88;;;17.27;;
31450;SDS011;18070;52.474;13.304;2024-03-22T05:36:45;30.42;;;15.93;;
31450;SDS011;18070;52.474;13.304;2024-03-22T05:39:11;35.58;;;18.13;;
31450;SDS011;18070;52.474;13.304;2024-03-22T05:41:37;33.83;;;17.65;;
31450;SDS011;18070;52.474;13.304;2024-03-22T05:44:03;33.03;;;17.58;;
31450;SDS011;18070;52.474;13.304;2024-03-22T05:46:29;37.75;;;17.65;;
31450;SDS011;18070;52.474;13.304;2024-03-22T05:48:55;32.75;;;17.17;;
31450;SDS011;18070;52.474;13.304;2024-03-22T05:51:21;29.08;;;16.33;;
31450;SDS011;18070;52.474;13.304;2024-03-22T05:53:47;33.35;;;18.17;;
31450;SDS011;18070;52.474;13.304;2024-03-22T05:56:13;31.75;;;17.33;;
31450;SDS011;18070;52.474;13.304;2024-03-22T05:58:39;34.17;;;17.38;;
31450;SDS011;18070;52.474;13.304;2024-03-22T06:01:05;33.33;;;17.15;;
31450;SDS011;18070;52.474;13.304;2024-03-22T06:03:31;31.58;;;17.83;;
31450;SDS011;18070;52.474;13.304;2024-03-22T06:05:57;32.03;;;16.83;;
31450;SDS011;18070;52.474;13.304;2024-03-22T06:08:25;34.10;;;18.27;;
31450;SDS011;18070;52.474;13.304;2024-03-22T06:10:54;31.23;;;17.45;;
31450;SDS011;18070;52.474;13.304;2024-03-22T06:13:23;30.30;;;17.17;;
31450;SDS011;18070;52.474;13.304;2024-03-22T06:15:49;33.33;;;17.48;;
31450;SDS011;18070;52.474;13.304;2024-03-22T06:18:15;29.48;;;17.40;;
31450;SDS011;18070;52.474;13.304;2024-03-22T06:20:41;36.55;;;16.75;;
31450;SDS011;18070;52.474;13.304;2024-03-22T06:23:07;34.63;;;16.83;;
31450;SDS011;18070;52.474;13.304;2024-03-22T06:25:33;29.75;;;16.42;;
31450;SDS011;18070;52.474;13.304;2024-03-22T06:27:59;29.77;;;16.90;;
31450;SDS011;18070;52.474;13.304;2024-03-22T06:30:25;27.27;;;16.15;;
31450;SDS011;18070;52.474;13.304;2024-03-22T06:32:50;31.75;;;17.67;;
31450;SDS011;18070;52.474;13.304;2024-03-22T06:35:16;33.90;;;17.48;;
31450;SDS011;18070;52.474;13.304;2024-03-22T06:37:41;34.85;;;18.05;;
31450;SDS011;18070;52.474;13.304;2024-03-22T06:40:07;30.20;;;18.15;;
31450;SDS011;18070;52.474;13.304;2024-03-22T06:42:33;31.98;;;17.35;;
31450;SDS011;18070;52.474;13.304;2024-03-22T06:44:58;31.90;;;18.17;;
31450;SDS011;18070;52.474;13.304;2024-03-22T06:47:24;27.60;;;16.27;;
31450;SDS011;18070;52.474;13.304;2024-03-22T06:49:49;33.60;;;18.23;;
31450;SDS011;18070;52.474;13.304;2024-03-22T06:52:15;32.03;;;18.05;;
31450;SDS011;18070;52.474;13.304;2024-03-22T06:54:43;34.33;;;17.25;;
31450;SDS011;18070;52.474;13.304;2024-03-22T06:57:08;34.50;;;18.15;;
31450;SDS011;18070;52.474;13.304;2024-03-22T06:59:34;37.55;;;19.65;;
31450;SDS011;18070;52.474;13.304;2024-03-22T07:01:59;30.10;;;18.73;;
31450;SDS011;18070;52.474;13.304;2024-03-22T07:04:25;30.90;;;17.55;;
31450;SDS011;18070;52.474;13.304;2024-03-22T07:06:51;31.67;;;17.58;;
31450;SDS011;18070;52.474;13.304;2024-03-22T07:09:16;33.35;;;19.25;;
31450;SDS011;18070;52.474;13.304;2024-03-22T07:11:42;31.10;;;19.05;;
31450;SDS011;18070;52.474;13.304;2024-03-22T07:14:07;32.40;;;18.02;;
31450;SDS011;18070;52.474;13.304;2024-03-22T07:16:33;31.63;;;18.35;;
31450;SDS011;18070;52.474;13.304;2024-03-22T07:18:58;34.33;;;18.05;;
31450;SDS011;18070;52.474;13.304;2024-03-22T07:21:24;34.67;;;18.20;;
31450;SDS011;18070;52.474;13.304;2024-03-22T07:23:50;33.67;;;19.00;;
31450;SDS011;18070;52.474;13.304;2024-03-22T07:26:15;36.25;;;19.08;;
31450;SDS011;18070;52.474;13.304;2024-03-22T07:28:41;32.10;;;19.13;;
31450;SDS011;18070;52.474;13.304;2024-03-22T07:31:06;44.72;;;20.58;;
31450;SDS011;18070;52.474;13.304;2024-03-22T07:33:32;36.30;;;19.70;;
31450;SDS011;18070;52.474;13.304;2024-03-22T07:36:02;34.80;;;20.85;;
31450;SDS011;18070;52.474;13.304;2024-03-22T07:38:28;38.47;;;19.40;;
31450;SDS011;18070;52.474;13.304;2024-03-22T07:40:54;39.30;;;20.33;;
31450;SDS011;18070;52.474;13.304;2024-03-22T07:43:19;36.58;;;20.23;;
31450;SDS011;18070;52.474;13.304;2024-03-22T07:45:45;35.92;;;19.17;;
31450;SDS011;18070;52.474;13.304;2024-03-22T07:48:10;37.30;;;20.40;;
31450;SDS011;18070;52.474;13.304;2024-03-22T07:50:36;39.58;;;19.80;;
31450;SDS011;18070;52.474;13.304;2024-03-22T07:53:01;38.03;;;20.58;;
31450;SDS011;18070;52.474;13.304;2024-03-22T07:55:27;35.38;;;19.25;;
31450;SDS011;18070;52.474;13.304;2024-03-22T07:57:53;40.78;;;20.35;;
31450;SDS011;18070;52.474;13.304;2024-03-22T08:00:18;34.95;;;20.63;;
31450;SDS011;18070;52.474;13.304;2024-03-22T08:02:44;36.38;;;19.42;;
31450;SDS011;18070;52.474;13.304;2024-03-22T08:05:10;43.42;;;20.42;;
31450;SDS011;18070;52.474;13.304;2024-03-22T08:07:35;33.88;;;20.52;;
31450;SDS011;18070;52.474;13.304;2024-03-22T08:10:01;35.35;;;20.40;;
31450;SDS011;18070;52.474;13.304;2024-03-22T08:12:27;38.65;;;20.67;;
31450;SDS011;18070;52.474;13.304;2024-03-22T08:14:53;35.55;;;20.08;;
31450;SDS011;18070;52.474;13.304;2024-03-22T08:17:19;40.17;;;21.83;;
31450;SDS011;18070;52.474;13.304;2024-03-22T08:19:44;38.10;;;20.30;;
31450;SDS011;18070;52.474;13.304;2024-03-22T08:22:10;40.50;;;21.77;;
31450;SDS011;18070;52.474;13.304;2024-03-22T08:24:36;40.45;;;21.45;;
31450;SDS011;18070;52.474;13.304;2024-03-22T08:27:02;39.28;;;21.35;;
31450;SDS011;18070;52.474;13.304;2024-03-22T08:29:28;36.55;;;20.65;;
31450;SDS011;18070;52.474;13.304;2024-03-22T08:31:54;37.63;;;19.88;;
31450;SDS011;18070;52.474;13.304;2024-03-22T08:34:20;33.20;;;20.30;;
31450;SDS011;18070;52.474;13.304;2024-03-22T08:36:46;38.95;;;21.00;;
31450;SDS011;18070;52.474;13.304;2024-03-22T08:39:11;36.92;;;20.25;;
31450;SDS011;18070;52.474;13.304;2024-03-22T08:41:37;34.92;;;20.90;;
31450;SDS011;18070;52.474;13.304;2024-03-22T08:44:03;36.90;;;20.80;;
31450;SDS011;18070;52.474;13.304;2024-03-22T08:46:28;43.72;;;22.30;;
31450;SDS011;18070;52.474;13.304;2024-03-22T08:48:54;33.83;;;19.52;;
31450;SDS011;18070;52.474;13.304;2024-03-22T08:51:20;36.55;;;21.45;;
31450;SDS011;18070;52.474;13.304;2024-03-22T08:53:46;35.38;;;20.05;;
31450;SDS011;18070;52.474;13.304;2024-03-22T08:56:12;39.88;;;21.75;;
31450;SDS011;18070;52.474;13.304;2024-03-22T08:58:37;38.58;;;21.23;;
31450;SDS011;18070;52.474;13.304;2024-03-22T09:01:03;35.78;;;19.23;;
31450;SDS011;18070;52.474;13.304;2024-03-22T09:03:29;37.40;;;21.90;;
31450;SDS011;18070;52.474;13.304;2024-03-22T09:05:55;37.30;;;20.75;;
31450;SDS011;18070;52.474;13.304;2024-03-22T09:08:21;38.80;;;22.15;;
31450;SDS011;18070;52.474;13.304;2024-03-22T09:10:47;35.72;;;20.05;;
31450;SDS011;18070;52.474;13.304;2024-03-22T09:13:12;37.45;;;20.35;;
31450;SDS011;18070;52.474;13.304;2024-03-22T09:15:38;36.03;;;20.02;;
31450;SDS011;18070;52.474;13.304;2024-03-22T09:18:04;36.40;;;21.10;;
31450;SDS011;18070;52.474;13.304;2024-03-22T09:20:30;36.22;;;19.83;;
31450;SDS011;18070;52.474;13.304;2024-03-22T09:22:55;34.72;;;19.98;;
31450;SDS011;18070;52.474;13.304;2024-03-22T09:25:22;33.97;;;19.80;;
31450;SDS011;18070;52.474;13.304;2024-03-22T09:27:48;35.55;;;20.58;;
31450;SDS011;18070;52.474;13.304;2024-03-22T09:30:13;34.03;;;20.02;;
31450;SDS011;18070;52.474;13.304;2024-03-22T09:32:39;34.83;;;20.08;;
31450;SDS011;18070;52.474;13.304;2024-03-22T09:35:05;38.17;;;21.50;;
31450;SDS011;18070;52.474;13.304;2024-03-22T09:37:31;31.17;;;19.10;;
31450;SDS011;18070;52.474;13.304;2024-03-22T09:39:57;32.38;;;20.10;;
31450;SDS011;18070;52.474;13.304;2024-03-22T09:42:23;32.65;;;18.83;;
31450;SDS011;18070;52.474;13.304;2024-03-22T09:44:51;35.33;;;18.45;;
31450;SDS011;18070;52.474;13.304;2024-03-22T09:47:19;37.75;;;19.88;;
31450;SDS011;18070;52.474;13.304;2024-03-22T09:49:46;36.08;;;19.77;;
31450;SDS011;18070;52.474;13.304;2024-03-22T09:52:13;34.15;;;19.45;;
31450;SDS011;18070;52.474;13.304;2024-03-22T09:54:41;36.88;;;19.98;;
31450;SDS011;18070;52.474;13.304;2024-03-22T09:57:09;29.13;;;19.23;;
31450;SDS011;18070;52.474;13.304;2024-03-22T09:59:38;32.80;;;18.90;;
31450;SDS011;18070;52.474;13.304;2024-03-22T10:02:03;38.67;;;19.10;;
31450;SDS011;18070;52.474;13.304;2024-03-22T10:04:29;32.22;;;19.13;;
31450;SDS011;18070;52.474;13.304;2024-03-22T10:06:55;31.77;;;19.45;;
31450;SDS011;18070;52.474;13.304;2024-03-22T10:09:27;31.20;;;19.02;;
31450;SDS011;18070;52.474;13.304;2024-03-22T10:11:55;30.13;;;18.55;;
31450;SDS011;18070;52.474;13.304;2024-03-22T10:14:21;30.33;;;17.52;;
31450;SDS011;18070;52.474;13.304;2024-03-22T10:16:46;29.67;;;19.48;;
31450;SDS011;18070;52.474;13.304;2024-03-22T10:19:12;32.22;;;19.27;;
31450;SDS011;18070;52.474;13.304;2024-03-22T10:21:37;27.25;;;17.65;;
31450;SDS011;18070;52.474;13.304;2024-03-22T10:24:03;35.22;;;17.67;;
31450;SDS011;18070;52.474;13.304;2024-03-22T10:26:29;32.63;;;19.02;;
31450;SDS011;18070;52.474;13.304;2024-03-22T10:28:57;27.80;;;17.60;;
31450;SDS011;18070;52.474;13.304;2024-03-22T10:31:23;24.73;;;15.65;;
31450;SDS011;18070;52.474;13.304;2024-03-22T10:33:48;28.48;;;17.45;;
31450;SDS011;18070;52.474;13.304;2024-03-22T10:36:15;32.53;;;18.55;;
31450;SDS011;18070;52.474;13.304;2024-03-22T10:38:41;30.58;;;17.73;;
31450;SDS011;18070;52.474;13.304;2024-03-22T10:41:08;29.98;;;17.60;;
31450;SDS011;18070;52.474;13.304;2024-03-22T10:43:34;31.80;;;18.25;;
31450;SDS011;18070;52.474;13.304;2024-03-22T10:46:00;28.42;;;17.05;;
31450;SDS011;18070;52.474;13.304;2024-03-22T10:48:29;30.48;;;17.05;;
31450;SDS011;18070;52.474;13.304;2024-03-22T10:50:58;26.58;;;16.92;;
31450;SDS011;18070;52.474;13.304;2024-03-22T10:53:25;26.08;;;16.25;;
31450;SDS011;18070;52.474;13.304;2024-03-22T10:55:52;31.25;;;16.77;;
31450;SDS011;18070;52.474;13.304;2024-03-22T10:58:22;28.83;;;15.70;;
31450;SDS011;18070;52.474;13.304;2024-03-22T11:00:53;23.85;;;15.00;;
31450;SDS011;18070;52.474;13.304;2024-03-22T11:03:20;24.10;;;14.90;;
31450;SDS011;18070;52.474;13.304;2024-03-22T11:05:46;26.67;;;15.13;;
31450;SDS011;18070;52.474;13.304;2024-03-22T11:08:12;26.42;;;15.75;;
31450;SDS011;18070;52.474;13.304;2024-03-22T11:10:38;24.52;;;14.88;;
31450;SDS011;18070;52.474;13.304;2024-03-22T11:13:04;24.92;;;15.10;;
31450;SDS011;18070;52.474;13.304;2024-03-22T11:15:32;25.83;;;15.32;;
31450;SDS011;18070;52.474;13.304;2024-03-22T11:17:58;30.65;;;16.38;;
31450;SDS011;18070;52.474;13.304;2024-03-22T11:20:24;28.42;;;16.13;;
31450;SDS011;18070;52.474;13.304;2024-03-22T11:22:53;26.73;;;15.43;;
31450;SDS011;18070;52.474;13.304;2024-03-22T11:25:19;24.70;;;15.50;;
31450;SDS011;18070;52.474;13.304;2024-03-22T11:27:47;27.25;;;15.93;;
31450;SDS011;18070;52.474;13.304;2024-03-22T11:30:14;22.77;;;13.27;;
31450;SDS011;18070;52.474;13.304;2024-03-22T11:32:40;26.13;;;14.95;;
31450;SDS011;18070;52.474;13.304;2024-03-22T11:35:10;29.20;;;15.23;;
31450;SDS011;18070;52.474;13.304;2024-03-22T11:37:38;24.25;;;15.50;;
31450;SDS011;18070;52.474;13.304;2024-03-22T11:40:04;30.80;;;14.73;;
31450;SDS011;18070;52.474;13.304;2024-03-22T11:42:34;26.58;;;15.27;;
31450;SDS011;18070;52.474;13.304;2024-03-22T11:45:00;29.13;;;14.95;;
31450;SDS011;18070;52.474;13.304;2024-03-22T11:47:27;26.25;;;15.18;;
31450;SDS011;18070;52.474;13.304;2024-03-22T11:49:53;23.92;;;15.30;;
31450;SDS011;18070;52.474;13.304;2024-03-22T11:52:24;26.30;;;15.95;;
31450;SDS011;18070;52.474;13.304;2024-03-22T11:54:50;27.88;;;15.52;;
31450;SDS011;18070;52.474;13.304;2024-03-22T11:57:17;26.73;;;16.20;;
31450;SDS011;18070;52.474;13.304;2024-03-22T11:59:46;25.85;;;15.85;;
31450;SDS011;18070;52.474;13.304;2024-03-22T12:02:12;29.52;;;16.23;;
31450;SDS011;18070;52.474;13.304;2024-03-22T12:04:47;28.15;;;16.48;;
31450;SDS011;18070;52.474;13.304;2024-03-22T12:07:13;31.13;;;16.67;;
31450;SDS011;18070;52.474;13.304;2024-03-22T12:09:40;27.42;;;15.82;;
31450;SDS011;18070;52.474;13.304;2024-03-22T12:12:06;31.40;;;17.02;;
31450;SDS011;18070;52.474;13.304;2024-03-22T12:14:34;30.70;;;17.15;;
31450;SDS011;18070;52.474;13.304;2024-03-22T12:17:00;33.00;;;16.60;;
31450;SDS011;18070;52.474;13.304;2024-03-22T12:19:26;30.90;;;17.33;;
31450;SDS011;18070;52.474;13.304;2024-03-22T12:21:52;35.50;;;17.88;;
31450;SDS011;18070;52.474;13.304;2024-03-22T12:24:17;30.90;;;17.63;;
31450;SDS011;18070;52.474;13.304;2024-03-22T12:26:43;35.05;;;18.05;;
31450;SDS011;18070;52.474;13.304;2024-03-22T12:29:09;36.35;;;17.67;;
31450;SDS011;18070;52.474;13.304;2024-03-22T12:31:37;33.80;;;18.20;;
31450;SDS011;18070;52.474;13.304;2024-03-22T12:34:03;34.10;;;18.98;;
31450;SDS011;18070;52.474;13.304;2024-03-22T12:36:28;31.52;;;18.30;;
31450;SDS011;18070;52.474;13.304;2024-03-22T12:38:54;31.17;;;18.35;;
31450;SDS011;18070;52.474;13.304;2024-03-22T12:41:19;33.50;;;18.65;;
31450;SDS011;18070;52.474;13.304;2024-03-22T12:43:45;33.75;;;19.42;;
31450;SDS011;18070;52.474;13.304;2024-03-22T12:46:10;39.72;;;19.98;;
31450;SDS011;18070;52.474;13.304;2024-03-22T12:48:36;36.75;;;19.42;;
31450;SDS011;18070;52.474;13.304;2024-03-22T12:51:01;32.58;;;19.25;;
31450;SDS011;18070;52.474;13.304;2024-03-22T12:53:27;32.83;;;18.77;;
31450;SDS011;18070;52.474;13.304;2024-03-22T12:55:53;36.13;;;19.13;;
31450;SDS011;18070;52.474;13.304;2024-03-22T12:58:18;35.45;;;18.73;;
31450;SDS011;18070;52.474;13.304;2024-03-22T13:00:44;37.10;;;19.85;;
31450;SDS011;18070;52.474;13.304;2024-03-22T13:03:09;38.60;;;18.55;;
31450;SDS011;18070;52.474;13.304;2024-03-22T13:05:36;31.70;;;16.95;;
31450;SDS011;18070;52.474;13.304;2024-03-22T13:08:02;40.05;;;19.60;;
31450;SDS011;18070;52.474;13.304;2024-03-22T13:10:28;35.75;;;18.95;;
31450;SDS011;18070;52.474;13.304;2024-03-22T13:12:53;33.35;;;17.38;;
31450;SDS011;18070;52.474;13.304;2024-03-22T13:15:19;34.95;;;19.20;;
31450;SDS011;18070;52.474;13.304;2024-03-22T13:17:44;32.33;;;16.23;;
31450;SDS011;18070;52.474;13.304;2024-03-22T13:20:10;31.58;;;17.20;;
31450;SDS011;18070;52.474;13.304;2024-03-22T13:22:37;29.73;;;17.25;;
31450;SDS011;18070;52.474;13.304;2024-03-22T13:25:03;29.38;;;16.25;;
31450;SDS011;18070;52.474;13.304;2024-03-22T13:27:34;33.33;;;17.17;;
31450;SDS011;18070;52.474;13.304;2024-03-22T13:30:03;26.52;;;15.05;;
31450;SDS011;18070;52.474;13.304;2024-03-22T13:32:30;27.17;;;14.63;;
31450;SDS011;18070;52.474;13.304;2024-03-22T13:34:56;26.58;;;13.05;;
31450;SDS011;18070;52.474;13.304;2024-03-22T13:37:22;24.92;;;13.65;;
31450;SDS011;18070;52.474;13.304;2024-03-22T13:39:50;24.23;;;14.07;;
31450;SDS011;18070;52.474;13.304;2024-03-22T13:42:16;25.27;;;14.23;;
31450;SDS011;18070;52.474;13.304;2024-03-22T13:44:42;25.30;;;15.02;;
31450;SDS011;18070;52.474;13.304;2024-03-22T13:47:08;27.60;;;14.40;;
31450;SDS011;18070;52.474;13.304;2024-03-22T13:49:33;23.48;;;13.68;;
31450;SDS011;18070;52.474;13.304;2024-03-22T13:51:59;27.60;;;14.38;;
31450;SDS011;18070;52.474;13.304;2024-03-22T13:54:25;21.25;;;12.40;;
31450;SDS011;18070;52.474;13.304;2024-03-22T13:56:50;23.60;;;12.57;;
31450;SDS011;18070;52.474;13.304;2024-03-22T13:59:16;26.42;;;13.13;;
31450;SDS011;18070;52.474;13.304;2024-03-22T14:01:42;24.38;;;12.73;;